Time;durP1;ratioP1;P1;durP2;ratioP2;P2;SDS_P1;SDS_P2;PMS_P1;PMS_P2;Temp;Humidity;BMP_temperature;BMP_pressure;BME280_temperature;BME280_humidity;BME280_pressure;Samples;Min_cycle;Max_cycle;Signal;HPM_P1;HPM_P2
2021/09/25 00:01:35;;;;;;;30.20;15.50;;;;;;;14.55;100.00;100793.41;5090847;28;20059;-69
2021/09/25 00:04:02;;;;;;;29.73;16.45;;;;;;;14.60;100.00;100798.22;5090911;28;20533;-70
2021/09/25 00:06:28;;;;;;;39.58;15.40;;;;;;;14.60;100.00;100805.44;5089710;28;20069;-70
2021/09/25 00:08:54;;;;;;;31.80;16.37;;;;;;;14.61;100.00;100796.34;5090706;28;20040;-70
2021/09/25 00:11:20;;;;;;;27.23;14.52;;;;;;;14.59;100.00;100795.75;5072739;28;20122;-70
2021/09/25 00:13:45;;;;;;;39.28;18.83;;;;;;;14.61;100.00;100780.25;5090000;28;20131;-70
2021/09/25 00:16:11;;;;;;;35.93;16.67;;;;;;;14.60;100.00;100771.34;5090227;28;20118;-70
2021/09/25 00:18:37;;;;;;;27.63;15.63;;;;;;;14.67;100.00;100764.19;5089731;28;20172;-70
2021/09/25 00:21:03;;;;;;;33.08;15.77;;;;;;;14.57;100.00;100752.94;5089554;28;20055;-69
2021/09/25 00:23:29;;;;;;;34.22;16.02;;;;;;;14.56;100.00;100762.00;5072935;28;20068;-69
2021/09/25 00:25:55;;;;;;;39.00;17.42;;;;;;;14.60;100.00;100773.22;5089792;28;20058;-70
2021/09/25 00:28:20;;;;;;;33.13;17.15;;;;;;;14.68;100.00;100776.63;5089679;28;20044;-70
2021/09/25 00:30:46;;;;;;;35.17;16.80;;;;;;;14.67;100.00;100769.56;5089199;28;20126;-70
2021/09/25 00:33:11;;;;;;;29.80;14.93;;;;;;;14.70;100.00;100763.84;5090408;28;20055;-70
2021/09/25 00:35:36;;;;;;;35.07;16.57;;;;;;;14.68;100.00;100762.34;5089382;28;20032;-70
2021/09/25 00:38:02;;;;;;;36.20;16.93;;;;;;;14.67;100.00;100756.13;5090114;28;20032;-70
2021/09/25 00:40:27;;;;;;;40.13;16.57;;;;;;;14.64;100.00;100761.06;5089294;28;20054;-70
2021/09/25 00:42:53;;;;;;;42.20;16.73;;;;;;;14.64;100.00;100756.53;5090180;28;20060;-69
2021/09/25 00:45:19;;;;;;;32.72;15.50;;;;;;;14.70;100.00;100753.09;5090075;28;20032;-70
2021/09/25 00:47:46;;;;;;;33.03;15.30;;;;;;;14.72;100.00;100756.41;5072127;28;20034;-70
2021/09/25 00:50:11;;;;;;;31.92;16.63;;;;;;;14.71;100.00;100749.38;5055586;28;20051;-70
2021/09/25 00:52:37;;;;;;;36.38;14.98;;;;;;;14.72;100.00;100751.03;5072174;28;20365;-70
2021/09/25 00:55:04;;;;;;;33.90;14.85;;;;;;;14.77;100.00;100748.63;5088979;28;20109;-70
2021/09/25 00:57:29;;;;;;;;;;;;;;;14.71;100.00;100759.28;5089230;28;20131;-70
2021/09/25 00:59:55;;;;;;;;;;;;;;;14.74;100.00;100758.91;5089238;28;20011;-70
2021/09/25 01:02:21;;;;;;;33.30;14.45;;;;;;;14.71;100.00;100764.66;5088874;28;19916;-70
2021/09/25 01:04:47;;;;;;;39.47;17.02;;;;;;;14.75;100.00;100764.09;5089677;28;20035;-70
2021/09/25 01:07:14;;;;;;;35.58;15.98;;;;;;;14.67;100.00;100758.81;5088504;28;20427;-70
2021/09/25 01:09:40;;;;;;;31.02;15.85;;;;;;;14.66;100.00;100756.34;5071748;28;20109;-70
2021/09/25 01:12:07;;;;;;;33.60;15.95;;;;;;;14.69;100.00;100762.16;5089784;28;20036;-70
2021/09/25 01:14:32;;;;;;;39.30;17.08;;;;;;;14.66;100.00;100757.19;5089577;28;20032;-70
2021/09/25 01:17:07;;;;;;;31.97;15.70;;;;;;;14.75;100.00;100764.09;5089592;28;20050;-69
2021/09/25 01:19:33;;;;;;;34.25;18.45;;;;;;;14.72;100.00;100767.16;5089249;28;20085;-69
2021/09/25 01:21:59;;;;;;;31.00;15.83;;;;;;;14.73;100.00;100763.47;5088796;28;20388;-70
2021/09/25 01:24:24;;;;;;;31.60;16.80;;;;;;;14.73;100.00;100765.31;5088176;28;20039;-70
2021/09/25 01:26:49;;;;;;;43.37;18.93;;;;;;;14.70;100.00;100761.16;5071763;28;20429;-70
2021/09/25 01:29:15;;;;;;;51.93;17.47;;;;;;;14.66;100.00;100765.25;5089122;28;20039;-70
2021/09/25 01:31:40;;;;;;;32.80;16.97;;;;;;;14.67;100.00;100766.88;5088663;28;20079;-69
2021/09/25 01:34:06;;;;;;;36.70;17.43;;;;;;;14.67;100.00;100769.56;5089106;28;20035;-70
2021/09/25 01:36:31;;;;;;;42.33;17.47;;;;;;;14.67;100.00;100766.88;5089276;28;20064;-70
2021/09/25 01:38:57;;;;;;;37.67;18.10;;;;;;;14.65;100.00;100766.25;5087877;28;20282;-70
2021/09/25 01:41:22;;;;;;;35.30;16.90;;;;;;;14.64;100.00;100753.00;5088374;28;20036;-70
2021/09/25 01:43:49;;;;;;;46.60;18.73;;;;;;;14.66;100.00;100765.25;5088902;28;20425;-70
2021/09/25 01:46:18;;;;;;;36.55;16.23;;;;;;;14.69;100.00;100769.41;5087295;28;20274;-70
2021/09/25 01:48:44;;;;;;;37.05;16.52;;;;;;;14.68;100.00;100773.94;5088708;28;20050;-69
2021/09/25 01:51:11;;;;;;;40.25;17.30;;;;;;;14.67;100.00;100779.50;5088241;28;20036;-70
2021/09/25 01:53:37;;;;;;;36.03;16.70;;;;;;;14.64;100.00;100769.13;5089002;28;20071;-70
2021/09/25 01:56:11;;;;;;;30.05;16.98;;;;;;;14.61;100.00;100770.34;5071185;28;20082;-69
2021/09/25 01:58:38;;;;;;;38.65;17.13;;;;;;;14.70;100.00;100777.28;5088588;28;20255;-70
2021/09/25 02:01:04;;;;;;;;;;;;;;;14.64;100.00;100775.34;5089418;28;20032;-70
2021/09/25 02:03:29;;;;;;;;;;;;;;;14.63;100.00;100779.03;5088578;28;19957;-70
2021/09/25 02:05:55;;;;;;;;;;;;;;;14.68;100.00;100786.53;5088919;28;20059;-70
2021/09/25 02:08:20;;;;;;;36.20;14.53;;;;;;;14.63;100.00;100770.97;5088991;28;19919;-69
2021/09/25 02:10:46;;;;;;;28.70;15.47;;;;;;;14.62;100.00;100777.38;5088183;28;20042;-70
2021/09/25 02:13:11;;;;;;;36.10;16.53;;;;;;;14.60;100.00;100774.03;5087826;28;20032;-70
2021/09/25 02:15:37;;;;;;;35.95;17.48;;;;;;;14.60;100.00;100776.72;5087587;28;20509;-70
2021/09/25 02:18:02;;;;;;;32.80;16.33;;;;;;;14.56;100.00;100781.66;5088668;28;20108;-70
2021/09/25 02:20:28;;;;;;;34.50;15.77;;;;;;;14.56;100.00;100788.88;5070730;28;20074;-70
2021/09/25 02:22:53;;;;;;;39.13;16.27;;;;;;;14.57;100.00;100795.91;5088713;28;20036;-70
2021/09/25 02:25:19;;;;;;;35.80;16.10;;;;;;;14.56;100.00;100795.09;5087465;28;20043;-70
2021/09/25 02:27:49;;;;;;;33.47;17.13;;;;;;;14.60;100.00;100798.22;5070708;28;20570;-70
2021/09/25 02:30:16;;;;;;;33.13;15.40;;;;;;;14.63;100.00;100797.84;5070306;28;20032;-70
2021/09/25 02:32:43;;;;;;;30.02;15.25;;;;;;;14.66;100.00;100789.41;5070747;28;20472;-70
2021/09/25 02:35:10;;;;;;;25.20;15.00;;;;;;;14.62;100.00;100798.88;5088244;28;20173;-70
2021/09/25 02:37:36;;;;;;;29.10;14.50;;;;;;;14.59;100.00;100799.25;5087471;28;20860;-70
2021/09/25 02:40:02;;;;;;;34.23;15.80;;;;;;;14.60;100.00;100795.53;5088003;28;20036;-70
2021/09/25 02:42:28;;;;;;;31.90;14.85;;;;;;;14.60;100.00;100795.53;5088392;28;20044;-69
2021/09/25 02:44:53;;;;;;;29.43;15.03;;;;;;;14.62;100.00;100793.50;5088257;28;20051;-70
2021/09/25 02:47:18;;;;;;;31.33;16.20;;;;;;;14.60;100.00;100784.78;5088094;28;20039;-70
2021/09/25 02:49:44;;;;;;;33.03;16.33;;;;;;;14.61;100.00;100786.47;5087183;28;20474;-69
2021/09/25 02:52:09;;;;;;;28.17;14.90;;;;;;;14.63;100.00;100779.03;5088234;28;20036;-70
2021/09/25 02:54:35;;;;;;;31.93;17.13;;;;;;;14.61;100.00;100774.88;5087205;28;20054;-69
2021/09/25 02:57:00;;;;;;;25.53;15.20;;;;;;;14.65;100.00;100786.91;5086952;28;20193;-70
2021/09/25 02:59:25;;;;;;;31.93;15.50;;;;;;;14.70;100.00;100785.34;5088075;28;20054;-70
2021/09/25 03:01:51;;;;;;;38.17;18.87;;;;;;;14.65;100.00;100784.22;5088089;28;20058;-70
2021/09/25 03:04:17;;;;;;;30.48;18.80;;;;;;;14.66;100.00;100780.53;5089039;28;20471;-70
2021/09/25 03:06:42;;;;;;;31.87;18.30;;;;;;;14.68;100.00;100781.16;5091847;28;20021;-70
2021/09/25 03:09:07;;;;;;;38.57;19.17;;;;;;;14.69;100.00;100788.22;5090212;28;20476;-70
2021/09/25 03:11:33;;;;;;;41.53;17.80;;;;;;;14.70;100.00;100793.41;5091830;28;20032;-70
2021/09/25 03:13:58;;;;;;;43.93;18.53;;;;;;;14.72;100.00;100799.41;5091943;28;20429;-70
2021/09/25 03:16:24;;;;;;;40.20;18.17;;;;;;;14.75;100.00;100801.72;5091367;28;20493;-70
2021/09/25 03:18:49;;;;;;;39.20;19.03;;;;;;;14.84;100.00;100812.34;5090679;28;20024;-70
2021/09/25 03:21:14;;;;;;;40.93;19.93;;;;;;;14.77;100.00;100801.53;5091671;28;20044;-70
2021/09/25 03:23:40;;;;;;;37.47;18.67;;;;;;;14.76;100.00;100799.88;5091725;28;20850;-70
2021/09/25 03:26:05;;;;;;;43.20;20.03;;;;;;;14.70;100.00;100803.28;5091394;28;20416;-70
2021/09/25 03:28:31;;;;;;;45.60;21.13;;;;;;;14.71;100.00;100803.13;5091484;28;20043;-70
2021/09/25 03:30:56;;;;;;;46.07;21.13;;;;;;;14.71;100.00;100805.81;5090476;28;20036;-70
2021/09/25 03:33:21;;;;;;;44.20;20.90;;;;;;;14.75;100.00;100809.78;5073643;28;20036;-69
2021/09/25 03:35:47;;;;;;;45.60;19.15;;;;;;;14.76;100.00;100814.13;5090254;28;20032;-70
2021/09/25 03:38:13;;;;;;;60.50;21.77;;;;;;;14.77;100.00;100818.50;5091176;28;20028;-70
2021/09/25 03:40:39;;;;;;;;;;;;;;;14.78;100.00;100825.53;5090750;28;20051;-70
2021/09/25 03:43:07;;;;;;;;;;;;;;;14.73;100.00;100827.94;5091667;28;19912;-70
2021/09/25 03:45:33;;;;;;;43.67;22.55;;;;;;;14.72;100.00;100825.44;5091148;28;19912;-70
2021/09/25 03:47:59;;;;;;;44.72;22.73;;;;;;;14.82;100.00;100826.00;5090091;28;20448;-70
2021/09/25 03:50:25;;;;;;;40.50;22.05;;;;;;;14.80;100.00;100821.81;5073137;28;20028;-70
2021/09/25 03:52:50;;;;;;;45.45;21.25;;;;;;;14.75;100.00;100825.91;5091056;28;20039;-70
2021/09/25 03:55:16;;;;;;;47.80;22.63;;;;;;;14.83;100.00;100833.03;5090027;28;20457;-69
2021/09/25 03:57:41;;;;;;;50.83;21.50;;;;;;;14.84;100.00;100815.03;5090726;28;20040;-70
2021/09/25 04:00:07;;;;;;;35.27;19.57;;;;;;;14.76;100.00;100832.94;5089859;28;20408;-70
2021/09/25 04:02:33;;;;;;;;;;;;;;;14.77;100.00;100829.25;5091543;28;20070;-70
2021/09/25 04:04:58;;;;;;;;;;;;;;;14.81;100.00;100828.88;5072915;28;19916;-70
2021/09/25 04:07:24;;;;;;;40.17;19.80;;;;;;;14.85;100.00;100833.69;5090774;28;19912;-70
2021/09/25 04:09:49;;;;;;;41.37;22.10;;;;;;;14.80;100.00;100843.31;5089082;28;20055;-70
2021/09/25 04:12:15;;;;;;;44.33;23.23;;;;;;;14.80;100.00;100843.31;5090853;28;20143;-70
2021/09/25 04:14:40;;;;;;;50.93;22.10;;;;;;;14.82;100.00;100843.97;5088161;28;20039;-70
2021/09/25 04:17:06;;;;;;;50.70;22.50;;;;;;;14.84;100.00;100841.91;5090556;28;20036;-70
2021/09/25 04:19:31;;;;;;;51.50;22.70;;;;;;;14.86;100.00;100832.63;5090212;28;20035;-70
2021/09/25 04:21:57;;;;;;;45.55;20.92;;;;;;;14.88;100.00;100837.84;5090591;28;20040;-70
2021/09/25 04:24:22;;;;;;;50.83;24.10;;;;;;;14.81;100.00;100842.31;5090313;28;20050;-70
2021/09/25 04:26:47;;;;;;;44.00;21.00;;;;;;;14.85;100.00;100851.66;5089569;28;20024;-70
2021/09/25 04:29:13;;;;;;;43.70;22.33;;;;;;;14.91;100.00;100850.91;5088978;28;20044;-70
2021/09/25 04:31:40;;;;;;;51.93;23.13;;;;;;;14.81;100.00;100853.06;5089519;28;20143;-70
2021/09/25 04:34:05;;;;;;;42.55;21.60;;;;;;;14.91;100.00;100853.59;5089987;28;20051;-70
2021/09/25 04:36:31;;;;;;;54.97;24.42;;;;;;;14.84;100.00;100856.19;5089300;28;20035;-70
2021/09/25 04:38:58;;;;;;;51.95;26.08;;;;;;;14.86;100.00;100848.78;5089874;28;20035;-70
2021/09/25 04:41:24;;;;;;;48.75;25.88;;;;;;;14.82;100.00;100852.03;5072412;28;20040;-70
2021/09/25 04:43:49;;;;;;;45.60;24.92;;;;;;;14.89;100.00;100848.41;5089313;28;20032;-70
2021/09/25 04:46:15;;;;;;;45.23;23.13;;;;;;;14.88;100.00;100856.66;5089674;28;20032;-70
2021/09/25 04:48:40;;;;;;;62.20;23.90;;;;;;;14.88;100.00;100860.16;5089865;28;20425;-70
2021/09/25 04:51:06;;;;;;;49.97;23.13;;;;;;;14.84;100.00;100864.25;5089041;28;20040;-70
2021/09/25 04:53:31;;;;;;;47.47;24.63;;;;;;;14.86;100.00;100867.59;5072245;28;20035;-69
2021/09/25 04:55:57;;;;;;;43.17;22.40;;;;;;;14.91;100.00;100865.19;5089618;28;20024;-70
2021/09/25 04:58:29;;;;;;;;;;;;;;;14.96;100.00;100872.66;5089315;28;20124;-70
2021/09/25 05:00:56;;;;;;;53.28;24.55;;;;;;;14.96;100.00;100869.97;5071571;28;20011;-70
2021/09/25 05:03:21;;;;;;;53.10;24.40;;;;;;;14.91;100.00;100867.03;5089901;28;20028;-70
2021/09/25 05:05:47;;;;;;;50.30;25.63;;;;;;;14.94;100.00;100875.56;5089096;28;20042;-70
2021/09/25 05:08:12;;;;;;;53.80;24.63;;;;;;;14.92;100.00;100872.22;5089562;28;20074;-70
2021/09/25 05:10:38;;;;;;;48.13;24.13;;;;;;;14.94;100.00;100882.78;5088949;28;20453;-70
2021/09/25 05:13:03;;;;;;;60.15;25.80;;;;;;;14.96;100.00;100875.34;5088659;28;20460;-70
2021/09/25 05:15:29;;;;;;;53.83;26.53;;;;;;;14.92;100.00;100880.28;5089324;28;20338;-70
2021/09/25 05:17:55;;;;;;;64.83;27.37;;;;;;;14.89;100.00;100879.81;5071610;28;20122;-70
2021/09/25 05:20:20;;;;;;;60.75;26.50;;;;;;;14.88;100.00;100891.59;5089041;28;20282;-70
2021/09/25 05:22:46;;;;;;;57.93;26.53;;;;;;;14.90;100.00;100892.25;5089482;28;20036;-70
2021/09/25 05:25:11;;;;;;;62.93;27.37;;;;;;;14.91;100.00;100897.44;5071338;28;20110;-70
2021/09/25 05:27:37;;;;;;;55.58;26.85;;;;;;;14.96;100.00;100899.53;5088668;28;20407;-70
2021/09/25 05:30:04;;;;;;;50.97;25.03;;;;;;;14.96;100.00;100902.22;5089084;28;20058;-70
2021/09/25 05:32:29;;;;;;;46.72;25.15;;;;;;;14.95;100.00;100896.03;5089250;28;20046;-70
2021/09/25 05:34:55;;;;;;;61.63;27.57;;;;;;;14.96;100.00;100889.66;5089099;28;20048;-70
2021/09/25 05:37:20;;;;;;;56.73;25.17;;;;;;;14.97;100.00;100899.38;5088900;28;20028;-70
2021/09/25 05:39:46;;;;;;;51.13;25.30;;;;;;;15.00;100.00;100898.16;5088041;28;20043;-70
2021/09/25 05:42:15;;;;;;;63.53;27.02;;;;;;;15.04;100.00;100898.63;5088890;28;20035;-70
2021/09/25 05:44:45;;;;;;;51.17;26.73;;;;;;;15.08;100.00;100908.81;5087882;28;20598;-70
2021/09/25 05:47:11;;;;;;;50.38;26.10;;;;;;;15.15;100.00;100901.66;5088811;28;20063;-70
2021/09/25 05:49:37;;;;;;;48.42;26.48;;;;;;;15.19;100.00;100907.50;5088683;28;20028;-70
2021/09/25 05:52:04;;;;;;;62.40;27.73;;;;;;;15.16;100.00;100905.19;5088826;28;20036;-70
2021/09/25 05:54:29;;;;;;;63.13;26.48;;;;;;;15.22;100.00;100899.06;5088703;28;20039;-71
2021/09/25 05:56:54;;;;;;;52.83;26.10;;;;;;;15.27;100.00;100899.31;5088904;28;20521;-70
2021/09/25 05:59:20;;;;;;;52.83;24.70;;;;;;;15.35;100.00;100892.97;5070641;28;20040;-70
2021/09/25 06:01:45;;;;;;;53.93;24.90;;;;;;;15.35;100.00;100895.69;5088740;28;20032;-70
2021/09/25 06:04:11;;;;;;;46.27;23.43;;;;;;;15.36;100.00;100890.13;5088433;28;20096;-70
2021/09/25 06:06:36;;;;;;;49.50;22.80;;;;;;;15.30;100.00;100885.47;5087223;28;20039;-70
2021/09/25 06:09:01;;;;;;;45.07;23.87;;;;;;;15.46;100.00;100887.09;5087277;28;20077;-70
2021/09/25 06:11:27;;;;;;;44.60;22.33;;;;;;;15.44;100.00;100899.91;5088595;28;20038;-70
2021/09/25 06:13:52;;;;;;;49.15;24.05;;;;;;;15.41;100.00;100894.94;5070805;28;20122;-70
2021/09/25 06:16:18;;;;;;;50.37;23.30;;;;;;;15.37;100.00;100893.63;5087492;28;20028;-70
2021/09/25 06:18:43;;;;;;;50.83;22.63;;;;;;;15.52;100.00;100897.13;5088048;28;20044;-70
2021/09/25 06:21:08;;;;;;;44.13;23.80;;;;;;;15.67;100.00;100893.53;5087588;28;20028;-70
2021/09/25 06:23:34;;;;;;;62.10;24.37;;;;;;;15.68;100.00;100903.25;5087362;28;20040;-70
2021/09/25 06:25:59;;;;;;;52.73;23.93;;;;;;;15.63;100.00;100893.06;5087258;28;20069;-70
2021/09/25 06:28:25;;;;;;;48.80;22.33;;;;;;;15.67;100.00;100905.13;5088354;28;20067;-70
2021/09/25 06:30:51;;;;;;;53.30;22.43;;;;;;;15.74;100.00;100902.53;5088231;28;20032;-70
2021/09/25 06:33:17;;;;;;;51.80;25.52;;;;;;;15.77;100.00;100904.81;5088145;28;20040;-70
2021/09/25 06:35:42;;;;;;;39.83;20.70;;;;;;;15.89;100.00;100911.34;5088129;28;20456;-70
2021/09/25 06:38:08;;;;;;;45.63;21.43;;;;;;;15.87;100.00;100902.63;5087822;28;20131;-70
2021/09/25 06:40:34;;;;;;;40.73;21.33;;;;;;;15.74;100.00;100906.03;5091384;28;20036;-70
2021/09/25 06:42:59;;;;;;;55.58;21.45;;;;;;;15.84;100.00;100903.03;5092431;28;20308;-70
2021/09/25 06:45:30;;;;;;;34.73;18.37;;;;;;;16.10;100.00;100909.66;5092300;28;20043;-70
2021/09/25 06:47:56;;;;;;;45.60;21.27;;;;;;;16.13;100.00;100911.97;5074439;28;20040;-70
2021/09/25 06:50:22;;;;;;;50.25;21.23;;;;;;;16.02;100.00;100892.63;5091102;28;20038;-70
2021/09/25 06:52:47;;;;;;;45.00;18.50;;;;;;;16.29;100.00;100898.19;5074420;28;20526;-70
2021/09/25 06:55:12;;;;;;;42.07;20.63;;;;;;;16.55;100.00;100896.72;5090958;28;20320;-70
2021/09/25 06:57:38;;;;;;;31.63;17.00;;;;;;;16.91;100.00;100901.09;5074300;28;20447;-70
2021/09/25 07:00:04;;;;;;;34.80;17.13;;;;;;;16.86;100.00;100901.72;5091794;28;20445;-70
2021/09/25 07:02:30;;;;;;;40.97;18.50;;;;;;;16.97;100.00;100905.69;5092062;28;20041;-70
2021/09/25 07:04:56;;;;;;;31.60;15.27;;;;;;;17.45;100.00;100908.34;5090288;28;20050;-70
2021/09/25 07:07:21;;;;;;;28.57;15.33;;;;;;;17.60;100.00;100910.88;5090950;28;20070;-70
2021/09/25 07:09:46;;;;;;;30.30;13.57;;;;;;;17.97;100.00;100914.88;5090168;28;20063;-70
2021/09/25 07:12:12;;;;;;;28.17;13.73;;;;;;;17.71;100.00;100913.78;5092042;28;20388;-70
2021/09/25 07:14:37;;;;;;;29.75;14.50;;;;;;;17.98;99.58;100913.88;5091690;28;20051;-70
2021/09/25 07:17:03;;;;;;;33.00;14.60;;;;;;;17.93;97.60;100916.34;5073944;28;20067;-70
2021/09/25 07:19:29;;;;;;;27.40;12.23;;;;;;;17.80;98.11;100924.41;5091356;28;20806;-70
2021/09/25 07:21:55;;;;;;;28.90;12.38;;;;;;;17.56;99.24;100934.75;5091791;28;20074;-70
2021/09/25 07:24:20;;;;;;;32.65;14.43;;;;;;;17.38;100.00;100939.88;5091475;28;20055;-71
2021/09/25 07:26:46;;;;;;;36.40;12.70;;;;;;;17.29;100.00;100948.16;5091592;28;20390;-70
2021/09/25 07:29:11;;;;;;;33.97;14.03;;;;;;;17.24;100.00;100950.63;5090424;28;20027;-70
2021/09/25 07:31:37;;;;;;;29.47;14.13;;;;;;;17.23;100.00;100950.81;5090532;28;20066;-71
2021/09/25 07:34:02;;;;;;;33.08;14.95;;;;;;;17.09;100.00;100958.00;5073456;28;20123;-70
2021/09/25 07:36:28;;;;;;;29.13;13.50;;;;;;;17.00;100.00;100959.25;5090118;28;20032;-71
2021/09/25 07:38:55;;;;;;;30.58;14.80;;;;;;;17.07;100.00;100960.94;5073528;28;20057;-71
2021/09/25 07:41:20;;;;;;;;;;;;;;;17.11;100.00;100964.03;5091886;28;20097;-71
2021/09/25 07:43:45;;;;;;;32.03;14.45;;;;;;;17.23;100.00;100964.31;5073701;28;19916;-71
2021/09/25 07:46:11;;;;;;;26.83;13.83;;;;;;;17.42;100.00;100978.91;5073128;28;20097;-70
2021/09/25 07:48:36;;;;;;;27.30;12.93;;;;;;;17.51;100.00;100983.94;5090807;28;20047;-71
2021/09/25 07:51:02;;;;;;;24.30;12.60;;;;;;;17.65;100.00;100976.72;5073281;28;20339;-70
2021/09/25 07:53:27;;;;;;;23.30;12.32;;;;;;;17.81;100.00;100972.81;5091221;28;20074;-70
2021/09/25 07:55:53;;;;;;;26.63;12.68;;;;;;;17.88;100.00;100978.25;5090068;28;20096;-70
2021/09/25 07:58:18;;;;;;;35.37;12.37;;;;;;;17.82;98.83;100969.09;5090083;28;20093;-70
2021/09/25 08:00:44;;;;;;;23.92;12.60;;;;;;;17.64;99.27;100977.75;5089751;28;20061;-71
2021/09/25 08:03:09;;;;;;;36.70;10.63;;;;;;;18.10;100.00;100982.44;5090076;28;20040;-70
2021/09/25 08:05:35;;;;;;;23.65;11.05;;;;;;;18.40;97.21;100976.63;5090230;28;20126;-70
2021/09/25 08:08:00;;;;;;;21.73;11.23;;;;;;;18.63;95.26;100981.59;5090925;28;20059;-70
2021/09/25 08:10:26;;;;;;;17.17;9.50;;;;;;;18.41;95.15;100974.75;5089177;28;20043;-71
2021/09/25 08:12:51;;;;;;;22.58;9.43;;;;;;;18.56;94.85;100976.19;5089773;28;20044;-71
2021/09/25 08:15:17;;;;;;;19.10;8.07;;;;;;;18.54;95.33;100986.41;5090621;28;20069;-71
2021/09/25 08:17:43;;;;;;;21.17;8.20;;;;;;;18.62;94.57;100990.75;5090268;28;20330;-71
2021/09/25 08:20:10;;;;;;;;;;;;;;;18.99;94.47;100991.16;5090844;28;20036;-71
2021/09/25 08:22:36;;;;;;;23.20;7.00;;;;;;;18.90;91.63;100987.00;5072721;28;19908;-71
2021/09/25 08:25:03;;;;;;;15.95;8.35;;;;;;;19.09;91.74;100993.41;5090439;28;20035;-71
2021/09/25 08:27:28;;;;;;;19.48;7.47;;;;;;;18.89;92.45;100996.97;5090197;28;20027;-71
2021/09/25 08:29:54;;;;;;;12.77;7.47;;;;;;;18.70;92.73;101003.22;5088613;28;20040;-70
2021/09/25 08:32:19;;;;;;;16.63;7.20;;;;;;;18.57;93.60;101001.38;5071919;28;20032;-71
2021/09/25 08:34:45;;;;;;;16.60;8.23;;;;;;;18.46;93.16;101008.22;5089514;28;20093;-71
2021/09/25 08:37:11;;;;;;;21.87;7.37;;;;;;;18.36;92.37;101013.22;5089085;28;20463;-71
2021/09/25 08:39:37;;;;;;;16.27;6.32;;;;;;;18.67;92.71;101011.75;5072158;28;20036;-71
2021/09/25 08:42:02;;;;;;;14.18;6.65;;;;;;;18.80;90.85;101009.09;5089211;28;20047;-71
2021/09/25 08:44:28;;;;;;;14.05;6.05;;;;;;;18.95;90.98;101017.78;5089956;28;20494;-71
2021/09/25 08:46:54;;;;;;;19.43;6.27;;;;;;;18.95;89.75;101017.78;5090086;28;20055;-71
2021/09/25 08:49:19;;;;;;;11.45;4.55;;;;;;;19.03;90.68;101024.84;5089858;28;20036;-71
2021/09/25 08:51:45;;;;;;;11.73;4.90;;;;;;;19.07;89.94;101025.25;5089857;28;20060;-71
2021/09/25 08:54:11;;;;;;;20.63;5.68;;;;;;;18.88;90.26;101025.06;5089302;28;20350;-71
2021/09/25 08:56:37;;;;;;;20.30;5.60;;;;;;;18.64;91.75;101036.53;5088677;28;20479;-71
2021/09/25 08:59:05;;;;;;;14.35;5.35;;;;;;;18.66;91.19;101039.81;5089474;28;20036;-71
2021/09/25 09:01:32;;;;;;;14.82;4.85;;;;;;;18.41;91.27;101037.75;5089222;28;20388;-71
2021/09/25 09:03:59;;;;;;;13.65;4.65;;;;;;;18.48;91.05;101048.59;5071976;28;20469;-71
2021/09/25 09:06:28;;;;;;;10.18;3.95;;;;;;;18.64;90.92;101047.34;5071980;28;20078;-71
2021/09/25 09:08:58;;;;;;;11.30;3.55;;;;;;;18.68;90.97;101038.59;5089127;28;20125;-71
2021/09/25 09:11:23;;;;;;;7.97;4.05;;;;;;;18.56;88.84;101041.06;5072147;28;20101;-71
2021/09/25 09:13:52;;;;;;;7.75;4.47;;;;;;;18.61;90.17;101053.16;5089739;28;20063;-71
2021/09/25 09:16:20;;;;;;;14.73;4.38;;;;;;;18.58;88.49;101045.47;5089620;28;20035;-71
2021/09/25 09:18:48;;;;;;;7.25;3.47;;;;;;;18.49;89.07;101045.66;5089340;28;20128;-71
2021/09/25 09:21:18;;;;;;;8.65;3.45;;;;;;;18.82;89.12;101058.38;5089695;28;20479;-71
2021/09/25 09:24:02;;;;;;;8.70;3.17;;;;;;;19.31;88.25;101053.50;5088628;28;20083;-71
2021/09/25 09:26:30;;;;;;;9.43;3.50;;;;;;;19.48;86.50;101053.84;5089580;28;20343;-71
2021/09/25 09:28:58;;;;;;;10.73;3.75;;;;;;;19.10;83.90;101041.06;5089211;28;20036;-70
2021/09/25 09:31:24;;;;;;;8.70;2.92;;;;;;;18.90;84.26;101039.22;5089554;28;20059;-71
2021/09/25 09:33:53;;;;;;;6.35;2.63;;;;;;;19.20;83.17;101036.06;5071238;28;20027;-71
2021/09/25 09:36:36;;;;;;;10.68;2.88;;;;;;;19.37;83.19;101049.94;5087702;28;20039;-71
2021/09/25 09:39:17;;;;;;;8.90;3.00;;;;;;;19.37;81.90;101039.94;5088924;28;20093;-71
2021/09/25 09:41:49;;;;;;;6.72;2.42;;;;;;;19.54;81.20;101042.19;5070653;28;20032;-71
2021/09/25 09:44:21;;;;;;;5.78;2.55;;;;;;;19.93;80.98;101048.50;5088084;28;20036;-71
2021/09/25 09:47:14;;;;;;;9.73;3.30;;;;;;;20.22;80.64;101045.16;5088218;28;20035;-71
2021/09/25 09:49:41;;;;;;;6.90;2.80;;;;;;;20.42;79.02;101033.34;5068342;28;20794;-71
2021/09/25 09:52:11;;;;;;;5.28;2.40;;;;;;;20.06;79.51;101051.09;5088237;28;20526;-71
2021/09/25 09:54:40;;;;;;;15.27;2.33;;;;;;;19.96;78.80;101045.34;5087705;28;20093;-71
2021/09/25 09:57:11;;;;;;;6.55;2.20;;;;;;;20.11;80.29;101059.44;5087993;28;20040;-71
2021/09/25 09:59:38;;;;;;;7.80;2.00;;;;;;;20.09;78.58;101047.97;5087546;28;20050;-71
2021/09/25 10:02:05;;;;;;;8.45;2.95;;;;;;;19.85;80.81;101062.28;5087134;28;20082;-71
2021/09/25 10:04:31;;;;;;;6.30;2.42;;;;;;;19.96;81.55;101065.13;5086205;28;20088;-71
2021/09/25 10:06:57;;;;;;;8.15;2.60;;;;;;;19.80;79.87;101057.50;5087662;28;20436;-71
2021/09/25 10:09:25;;;;;;;6.95;2.60;;;;;;;19.17;81.95;101064.38;5086175;28;20044;-71
2021/09/25 10:11:54;;;;;;;5.60;2.55;;;;;;;19.10;83.81;101073.53;5086633;28;20483;-70
2021/09/25 10:14:25;;;;;;;9.13;2.83;;;;;;;19.40;83.76;101073.88;5053291;28;20354;-71
2021/09/25 10:16:52;;;;;;;8.15;2.92;;;;;;;19.31;84.06;101080.56;5087424;28;20126;-70
2021/09/25 10:19:23;;;;;;;10.38;2.67;;;;;;;19.54;83.71;101069.25;5087424;28;20035;-70
2021/09/25 10:21:53;;;;;;;8.13;2.58;;;;;;;19.64;82.57;101075.03;5087452;28;20036;-71
2021/09/25 10:24:27;;;;;;;9.82;2.92;;;;;;;19.63;82.14;101076.09;5087493;28;20044;-71
2021/09/25 10:26:54;;;;;;;9.10;2.92;;;;;;;19.61;81.67;101072.75;5069553;28;20039;-71
2021/09/25 10:29:25;;;;;;;6.00;3.10;;;;;;;19.51;82.51;101069.69;5086526;28;20027;-71
2021/09/25 10:32:23;;;;;;;8.15;3.25;;;;;;;19.80;83.04;101080.00;5087214;28;20044;-71
2021/09/25 10:35:12;;;;;;;7.93;3.30;;;;;;;19.58;83.21;101075.91;5069537;28;20031;-71
2021/09/25 10:37:49;;;;;;;11.80;3.17;;;;;;;19.85;82.76;101081.25;5087191;28;20089;-71
2021/09/25 10:40:16;;;;;;;6.82;2.50;;;;;;;19.88;81.72;101087.06;5086352;28;20075;-71
2021/09/25 10:42:43;;;;;;;;;;;;;;;19.93;80.75;101078.28;5086806;28;20047;-70
2021/09/25 10:45:12;;;;;;;6.32;2.70;;;;;;;20.00;81.51;101089.94;5069479;28;19916;-71
2021/09/25 10:47:39;;;;;;;8.05;3.80;;;;;;;20.14;81.39;101086.09;5086695;28;20024;-71
2021/09/25 10:50:12;;;;;;;7.35;2.45;;;;;;;20.00;81.11;101089.94;5086377;28;20028;-71
2021/09/25 10:52:42;;;;;;;8.05;2.25;;;;;;;19.99;80.81;101093.66;5068963;28;20040;-71
2021/09/25 10:55:25;;;;;;;8.20;2.92;;;;;;;19.64;81.63;101095.88;5087146;28;20043;-71
2021/09/25 10:58:19;;;;;;;8.55;2.90;;;;;;;20.14;80.89;101091.50;5086886;28;20078;-71
2021/09/25 11:00:51;;;;;;;5.28;2.80;;;;;;;19.95;81.15;101087.03;5086896;28;20097;-71
2021/09/25 11:06:18;;;;;;;7.03;3.10;;;;;;;19.67;80.94;101095.47;5086776;28;20028;-71
2021/09/25 11:08:48;;;;;;;9.50;2.90;;;;;;;19.67;80.83;101081.94;5085604;28;20032;-71
2021/09/25 11:11:16;;;;;;;8.90;2.67;;;;;;;19.57;81.44;101085.06;5087178;28;20039;-71
2021/09/25 11:14:00;;;;;;;7.88;2.95;;;;;;;19.29;82.00;101088.06;5087006;28;20395;-71